Time;durP1;ratioP1;P1;durP2;ratioP2;P2;SDS_P1;SDS_P2;PMS_P1;PMS_P2;Temp;Humidity;BMP_temperature;BMP_pressure;BME280_temperature;BME280_humidity;BME280_pressure;Samples;Min_cycle;Max_cycle;Signal;HPM_P1;HPM_P2
2021/01/15 00:00:21;;;;;;;5.88;1.90;;;8.30;99.90;;;;;;5087426;28;20590;-63
2021/01/15 00:02:48;;;;;;;5.63;1.58;;;8.30;99.90;;;;;;5085027;28;20035;-63
2021/01/15 00:05:13;;;;;;;10.07;2.13;;;8.30;99.90;;;;;;5086799;28;20079;-63
2021/01/15 00:07:39;;;;;;;7.50;2.25;;;8.30;99.90;;;;;;5076790;28;20112;-63
2021/01/15 00:10:05;;;;;;;9.00;2.33;;;8.40;99.90;;;;;;5082147;28;20088;-63
2021/01/15 00:12:31;;;;;;;11.43;2.50;;;8.30;99.90;;;;;;5083423;28;20049;-63
2021/01/15 00:14:56;;;;;;;6.63;2.65;;;8.30;99.90;;;;;;5089472;28;20412;-64
2021/01/15 00:17:22;;;;;;;6.43;2.30;;;8.30;99.90;;;;;;5074356;28;20562;-63
2021/01/15 00:19:49;;;;;;;8.50;2.80;;;8.20;99.90;;;;;;5089009;28;20046;-63
2021/01/15 00:22:15;;;;;;;10.55;2.90;;;8.40;99.90;;;;;;5072675;28;20055;-64
2021/01/15 00:24:40;;;;;;;10.10;3.00;;;8.40;99.90;;;;;;5088863;28;20069;-63
2021/01/15 00:27:07;;;;;;;9.07;2.70;;;8.30;99.90;;;;;;5083700;28;20032;-64
2021/01/15 00:29:32;;;;;;;12.95;2.95;;;8.30;99.90;;;;;;5081606;28;20118;-64
2021/01/15 00:31:58;;;;;;;8.65;3.25;;;8.30;99.90;;;;;;5078545;28;20127;-63
2021/01/15 00:34:24;;;;;;;13.68;2.40;;;8.30;99.90;;;;;;5085734;28;20411;-63
2021/01/15 00:36:50;;;;;;;9.18;2.63;;;8.40;99.90;;;;;;5063580;28;20024;-63
2021/01/15 00:39:16;;;;;;;12.55;2.72;;;8.20;99.90;;;;;;5083972;28;20035;-63
2021/01/15 00:41:45;;;;;;;13.50;2.38;;;8.30;99.90;;;;;;5083717;28;20484;-63
2021/01/15 00:44:12;;;;;;;7.82;2.00;;;8.30;99.90;;;;;;5086763;28;20044;-64
2021/01/15 00:46:45;;;;;;;9.70;2.50;;;8.40;99.90;;;;;;5083154;28;20024;-64
2021/01/15 00:49:13;;;;;;;11.27;2.05;;;8.40;99.90;;;;;;5084285;28;20039;-64
2021/01/15 00:51:39;;;;;;;13.52;2.45;;;8.20;99.90;;;;;;5059461;28;20099;-64
2021/01/15 00:54:05;;;;;;;15.38;2.78;;;8.30;99.90;;;;;;5079721;28;20116;-65
2021/01/15 00:56:32;;;;;;;8.43;2.20;;;8.40;99.90;;;;;;5080945;28;20085;-64
2021/01/15 00:58:57;;;;;;;10.07;2.45;;;8.20;99.90;;;;;;5071574;28;20038;-65
2021/01/15 01:01:24;;;;;;;8.27;2.00;;;8.30;99.90;;;;;;5070985;28;20391;-64
2021/01/15 01:03:51;;;;;;;13.82;2.00;;;8.20;99.90;;;;;;5073673;28;20170;-65
2021/01/15 01:06:19;;;;;;;9.02;2.72;;;8.30;99.90;;;;;;5079057;28;20070;-65
2021/01/15 01:08:45;;;;;;;10.77;2.38;;;8.30;99.90;;;;;;5079420;28;20047;-65
2021/01/15 01:11:19;;;;;;;11.52;2.33;;;8.40;99.90;;;;;;5082617;28;20398;-65
2021/01/15 01:13:50;;;;;;;7.18;1.73;;;8.20;99.90;;;;;;5078144;28;20040;-64
2021/01/15 01:16:17;;;;;;;9.65;2.22;;;8.30;99.90;;;;;;5073902;28;20031;-64
2021/01/15 01:18:44;;;;;;;11.15;2.35;;;8.10;99.90;;;;;;5076890;28;20557;-64
2021/01/15 01:21:11;;;;;;;9.95;2.63;;;8.10;99.90;;;;;;5080376;28;20029;-64
2021/01/15 01:23:38;;;;;;;10.60;2.17;;;8.20;99.90;;;;;;5075388;28;20020;-66
2021/01/15 01:26:03;;;;;;;12.77;2.67;;;8.00;99.90;;;;;;5080650;28;20017;-64
2021/01/15 01:28:29;;;;;;;12.05;2.38;;;7.90;99.90;;;;;;5081969;28;20076;-65
2021/01/15 01:30:55;;;;;;;9.43;2.58;;;8.00;99.90;;;;;;5082373;28;20093;-64
2021/01/15 01:33:21;;;;;;;14.30;2.88;;;8.10;99.90;;;;;;5072528;28;20012;-63
2021/01/15 01:35:47;;;;;;;9.82;2.42;;;8.00;99.90;;;;;;5083711;28;20329;-64
2021/01/15 01:38:13;;;;;;;12.73;2.25;;;8.10;99.90;;;;;;5085462;28;20020;-64
2021/01/15 01:40:39;;;;;;;10.52;2.00;;;8.00;99.90;;;;;;5084760;28;20169;-64
2021/01/15 01:43:04;;;;;;;9.75;2.10;;;8.00;99.90;;;;;;5082263;28;20129;-64
2021/01/15 01:45:30;;;;;;;9.20;1.83;;;7.90;99.90;;;;;;5084041;28;20096;-65
2021/01/15 01:47:58;;;;;;;7.75;2.00;;;7.90;99.90;;;;;;5069000;28;20046;-64
2021/01/15 01:50:25;;;;;;;10.93;2.08;;;7.90;99.90;;;;;;5067655;28;20039;-64
2021/01/15 01:52:51;;;;;;;8.00;2.15;;;7.80;99.90;;;;;;5076925;28;20108;-64
2021/01/15 01:55:18;;;;;;;10.90;2.75;;;7.80;99.90;;;;;;5067123;28;20155;-66
2021/01/15 01:57:44;;;;;;;5.40;1.85;;;7.80;99.90;;;;;;5073230;28;20119;-63
2021/01/15 02:00:11;;;;;;;13.98;2.13;;;7.80;99.90;;;;;;5079098;28;20097;-64
2021/01/15 02:02:37;;;;;;;11.05;2.28;;;7.80;99.90;;;;;;5066898;28;20024;-63
2021/01/15 02:05:05;;;;;;;16.35;2.58;;;7.80;99.90;;;;;;5066332;28;20072;-64
2021/01/15 02:07:31;;;;;;;13.55;2.38;;;7.80;99.90;;;;;;5068620;28;20050;-63
2021/01/15 02:10:16;;;;;;;13.38;2.35;;;7.80;99.90;;;;;;5077692;28;20036;-63
2021/01/15 02:12:57;;;;;;;14.52;2.58;;;7.70;99.90;;;;;;5073441;28;20090;-65
2021/01/15 02:15:49;;;;;;;14.48;2.58;;;7.60;99.90;;;;;;5072538;28;20024;-64
2021/01/15 02:18:32;;;;;;;7.28;2.13;;;7.60;99.90;;;;;;5055115;28;20503;-65
2021/01/15 02:21:50;;;;;;;11.02;2.03;;;7.60;99.90;;;;;;5081122;28;20038;-64
2021/01/15 02:24:33;;;;;;;8.82;2.55;;;7.70;99.90;;;;;;5088723;28;20024;-64
2021/01/15 02:27:21;;;;;;;14.00;1.88;;;7.50;99.90;;;;;;5082776;28;20422;-64
2021/01/15 02:30:08;;;;;;;14.05;2.53;;;7.60;99.90;;;;;;5071182;28;20028;-65
2021/01/15 02:32:49;;;;;;;13.77;2.33;;;7.70;99.90;;;;;;5077049;28;20011;-64
2021/01/15 02:35:35;;;;;;;15.52;3.33;;;7.70;99.90;;;;;;5089487;28;20523;-63
2021/01/15 02:38:03;;;;;;;13.70;2.73;;;7.70;99.90;;;;;;5086945;28;20028;-65
2021/01/15 03:09:08;;;;;;;12.18;3.38;;;8.00;99.90;;;;;;5083834;28;20131;-65
2021/01/15 03:11:37;;;;;;;10.70;2.28;;;7.90;99.90;;;;;;5073918;28;20040;-64
2021/01/15 03:14:04;;;;;;;12.73;2.40;;;7.90;99.90;;;;;;5086261;28;20095;-64
2021/01/15 03:16:30;;;;;;;14.80;2.60;;;7.90;99.90;;;;;;5079776;28;20799;-63
2021/01/15 03:18:59;;;;;;;8.70;2.50;;;7.90;99.90;;;;;;5078553;28;20020;-64
2021/01/15 03:21:28;;;;;;;13.13;1.92;;;7.90;99.90;;;;;;5081219;28;20098;-64
2021/01/15 03:24:00;;;;;;;7.03;2.33;;;7.80;99.90;;;;;;5076001;28;20468;-65
2021/01/15 03:26:26;;;;;;;14.02;2.33;;;7.90;99.90;;;;;;5078159;28;20036;-63
2021/01/15 03:28:52;;;;;;;13.27;2.08;;;7.70;99.90;;;;;;5089827;28;20028;-64
2021/01/15 03:31:18;;;;;;;9.57;2.08;;;7.80;99.90;;;;;;5082533;28;20514;-64
2021/01/15 03:33:43;;;;;;;5.15;2.08;;;7.90;99.90;;;;;;5081560;28;20020;-64
2021/01/15 03:36:09;;;;;;;15.63;2.08;;;7.90;99.90;;;;;;5080323;28;20017;-63
2021/01/15 03:38:35;;;;;;;9.15;1.90;;;7.80;99.90;;;;;;5083251;28;20442;-64
2021/01/15 03:41:00;;;;;;;6.90;1.95;;;7.80;99.90;;;;;;5083924;28;20108;-64
2021/01/15 03:43:26;;;;;;;8.27;1.38;;;7.90;99.90;;;;;;5087852;28;20024;-64
2021/01/15 03:45:52;;;;;;;15.23;2.35;;;7.80;99.90;;;;;;5085240;28;20498;-64
2021/01/15 03:48:21;;;;;;;8.82;2.17;;;7.80;99.90;;;;;;5078475;28;20507;-64
2021/01/15 03:50:47;;;;;;;10.18;2.28;;;7.80;99.90;;;;;;5071240;28;20028;-64
2021/01/15 03:53:13;;;;;;;10.15;2.22;;;7.80;99.90;;;;;;5082288;28;20495;-64
2021/01/15 03:55:39;;;;;;;11.48;2.10;;;7.80;99.90;;;;;;5086212;28;20560;-64
2021/01/15 03:58:04;;;;;;;14.70;2.30;;;7.80;99.90;;;;;;5076539;28;20033;-64
2021/01/15 04:00:30;;;;;;;10.95;2.03;;;7.80;99.90;;;;;;5080240;28;20025;-65
2021/01/15 04:02:56;;;;;;;11.02;2.00;;;7.70;99.90;;;;;;5073289;28;20199;-64
2021/01/15 04:05:22;;;;;;;11.23;2.20;;;7.70;99.90;;;;;;5087271;28;20051;-64
2021/01/15 04:07:48;;;;;;;22.08;2.70;;;7.70;99.90;;;;;;5079729;28;20040;-64
2021/01/15 04:10:15;;;;;;;9.27;2.10;;;7.70;99.90;;;;;;5082774;28;20036;-64
2021/01/15 04:12:41;;;;;;;16.20;2.15;;;7.70;99.90;;;;;;5080158;28;20025;-65
2021/01/15 04:15:09;;;;;;;15.85;2.20;;;7.60;99.90;;;;;;5051083;28;20025;-64
2021/01/15 04:17:35;;;;;;;9.35;1.80;;;7.50;99.90;;;;;;5080261;28;20040;-64
2021/01/15 04:20:01;;;;;;;12.13;2.08;;;7.40;99.90;;;;;;5069259;28;20024;-64
2021/01/15 04:22:33;;;;;;;14.40;2.70;;;7.40;99.90;;;;;;5080524;28;20862;-65
2021/01/15 04:24:59;;;;;;;9.80;2.42;;;7.30;99.90;;;;;;5069069;28;20025;-65
2021/01/15 04:27:28;;;;;;;15.32;2.28;;;7.30;99.90;;;;;;5079886;28;20028;-65
2021/01/15 04:29:54;;;;;;;10.60;2.20;;;7.30;99.90;;;;;;5068793;28;20033;-65
2021/01/15 04:32:20;;;;;;;14.30;2.22;;;7.30;99.90;;;;;;5077913;28;20039;-65
2021/01/15 04:34:45;;;;;;;13.00;2.42;;;7.10;99.90;;;;;;5081282;28;20028;-65
2021/01/15 04:37:11;;;;;;;17.77;2.30;;;7.10;99.90;;;;;;5078784;28;20041;-64
2021/01/15 04:39:37;;;;;;;18.88;2.40;;;7.20;99.90;;;;;;5078215;28;20084;-63
2021/01/15 04:42:02;;;;;;;19.48;2.88;;;7.10;99.90;;;;;;5084534;28;20020;-64
2021/01/15 04:44:29;;;;;;;18.52;3.08;;;7.00;99.90;;;;;;5087338;28;20055;-64
2021/01/15 04:46:56;;;;;;;15.10;2.53;;;6.90;99.90;;;;;;5076032;28;20023;-64
2021/01/15 04:49:26;;;;;;;14.13;2.90;;;6.80;99.90;;;;;;5069775;28;20131;-64
2021/01/15 04:51:57;;;;;;;15.77;1.88;;;7.00;99.90;;;;;;5071117;28;20013;-64
2021/01/15 04:54:35;;;;;;;17.63;2.40;;;6.90;99.90;;;;;;5071502;28;20449;-64
2021/01/15 04:57:10;;;;;;;11.10;2.92;;;6.90;99.90;;;;;;5075945;28;20028;-65
2021/01/15 04:59:43;;;;;;;11.98;2.50;;;6.90;99.90;;;;;;5086398;28;20023;-63
2021/01/15 05:02:11;;;;;;;10.55;2.28;;;6.90;99.90;;;;;;5083048;28;20452;-64
2021/01/15 05:04:37;;;;;;;20.98;2.50;;;7.00;99.90;;;;;;5076113;28;20028;-64
2021/01/15 05:07:05;;;;;;;13.73;2.40;;;6.90;99.90;;;;;;5073873;28;20028;-64
2021/01/15 05:09:44;;;;;;;14.73;2.90;;;6.90;99.90;;;;;;5084470;28;20032;-65
2021/01/15 05:12:15;;;;;;;15.63;3.20;;;7.10;99.90;;;;;;5080684;28;20019;-64
2021/01/15 05:14:42;;;;;;;13.60;2.75;;;7.10;99.90;;;;;;5083525;28;20024;-64
2021/01/15 05:17:09;;;;;;;28.52;3.28;;;7.00;99.90;;;;;;5069500;28;20046;-63
2021/01/15 05:19:41;;;;;;;20.45;3.08;;;7.00;99.90;;;;;;5070765;28;20580;-64
2021/01/15 05:22:08;;;;;;;20.52;2.53;;;7.00;99.90;;;;;;5070233;28;20483;-63
2021/01/15 05:24:35;;;;;;;11.23;2.28;;;7.00;99.90;;;;;;5074876;28;20074;-64
2021/01/15 05:27:38;;;;;;;19.55;2.67;;;7.10;99.90;;;;;;5078974;28;20055;-63
2021/01/15 05:30:13;;;;;;;20.98;2.85;;;7.20;99.90;;;;;;5085395;28;20047;-63
2021/01/15 05:32:39;;;;;;;10.32;2.25;;;7.20;99.90;;;;;;5081500;28;20091;-62
2021/01/15 05:35:06;;;;;;;21.73;3.45;;;7.00;99.90;;;;;;5079851;28;20080;-63
2021/01/15 05:37:32;;;;;;;16.00;2.97;;;7.20;99.90;;;;;;5082644;28;20020;-62
2021/01/15 05:40:02;;;;;;;17.58;3.20;;;7.10;99.90;;;;;;5081724;28;20380;-63
2021/01/15 05:42:28;;;;;;;13.70;3.83;;;7.10;99.90;;;;;;5077734;28;20029;-63
2021/01/15 05:45:12;;;;;;;19.95;3.55;;;7.20;99.90;;;;;;5063894;28;20036;-63
2021/01/15 05:47:44;;;;;;;17.67;4.00;;;7.10;99.90;;;;;;5078614;28;20055;-63
2021/01/15 05:50:14;;;;;;;25.85;3.42;;;7.20;99.90;;;;;;5084061;28;20123;-63
2021/01/15 05:52:54;;;;;;;13.20;3.00;;;7.30;99.90;;;;;;5081879;28;20107;-63
2021/01/15 05:55:20;;;;;;;16.92;3.25;;;7.20;99.90;;;;;;5072741;28;20023;-63
2021/01/15 05:57:48;;;;;;;23.15;3.13;;;7.10;99.90;;;;;;5083845;28;20012;-63
2021/01/15 06:00:25;;;;;;;21.38;2.90;;;7.20;99.90;;;;;;5084192;28;20121;-63
2021/01/15 06:02:52;;;;;;;19.15;4.25;;;7.20;99.90;;;;;;5082664;28;20028;-63
2021/01/15 06:05:21;;;;;;;20.70;3.35;;;7.20;99.90;;;;;;5064865;28;20429;-63
2021/01/15 06:07:56;;;;;;;23.27;3.42;;;7.10;99.90;;;;;;5076661;28;20051;-64
2021/01/15 06:10:22;;;;;;;29.42;3.35;;;7.10;99.90;;;;;;5084529;28;20582;-63
2021/01/15 06:12:48;;;;;;;22.65;3.30;;;7.20;99.90;;;;;;5081414;28;20028;-62
2021/01/15 06:15:14;;;;;;;15.40;2.72;;;7.10;99.90;;;;;;5085565;28;20016;-62
2021/01/15 06:17:39;;;;;;;15.85;3.20;;;7.20;99.90;;;;;;5077153;28;20041;-64
2021/01/15 06:20:07;;;;;;;14.43;3.03;;;7.30;99.90;;;;;;5084814;28;20020;-63
2021/01/15 06:22:36;;;;;;;17.45;3.15;;;7.30;99.90;;;;;;5081225;28;20009;-62
2021/01/15 06:25:23;;;;;;;13.80;3.03;;;7.30;99.90;;;;;;5069484;28;20493;-62
2021/01/15 06:27:51;;;;;;;25.90;3.50;;;7.30;99.90;;;;;;5077377;28;20440;-63
2021/01/15 06:30:25;;;;;;;17.95;3.42;;;7.30;99.90;;;;;;5070811;28;20472;-63
2021/01/15 06:32:51;;;;;;;21.70;2.88;;;7.40;99.90;;;;;;5079085;28;20016;-63
2021/01/15 06:35:30;;;;;;;12.60;2.63;;;7.20;99.90;;;;;;5079244;28;20028;-63
2021/01/15 06:38:08;;;;;;;19.88;3.10;;;7.20;99.90;;;;;;5080383;28;20013;-63
2021/01/15 06:40:40;;;;;;;18.95;2.85;;;7.40;99.90;;;;;;5082349;28;20099;-63
2021/01/15 06:43:10;;;;;;;18.55;3.20;;;7.20;99.90;;;;;;5080647;28;20020;-63
2021/01/15 06:45:45;;;;;;;14.95;3.03;;;7.20;99.90;;;;;;5067989;28;20020;-64
2021/01/15 06:48:16;;;;;;;20.02;2.83;;;7.40;99.90;;;;;;5068020;28;20021;-64
2021/01/15 06:50:44;;;;;;;17.25;3.30;;;7.40;99.90;;;;;;5081068;28;20048;-65
2021/01/15 06:53:25;;;;;;;15.45;2.65;;;7.30;99.90;;;;;;5072190;28;20016;-66
2021/01/15 06:56:01;;;;;;;10.73;2.50;;;7.20;99.90;;;;;;5080044;28;20115;-61
2021/01/15 06:58:41;;;;;;;22.85;2.95;;;7.70;99.90;;;;;;5083208;28;20032;-62
2021/01/15 07:01:21;;;;;;;16.02;3.03;;;7.50;99.90;;;;;;5079833;28;20025;-62
2021/01/15 07:04:16;;;;;;;18.67;3.03;;;7.40;99.90;;;;;;5081220;28;20016;-65
2021/01/15 07:07:14;;;;;;;15.00;3.08;;;7.40;99.90;;;;;;5079993;28;20028;-60
2021/01/15 07:09:42;;;;;;;21.55;3.53;;;7.30;99.90;;;;;;5083280;28;20120;-61
2021/01/15 07:12:14;;;;;;;17.67;2.80;;;7.30;99.90;;;;;;5083384;28;20028;-61
2021/01/15 07:14:43;;;;;;;16.10;2.83;;;7.30;99.90;;;;;;5076355;28;20396;-61
2021/01/15 07:17:17;;;;;;;20.52;3.17;;;7.30;99.90;;;;;;5083283;28;20430;-61
2021/01/15 07:19:44;;;;;;;17.02;3.45;;;7.30;99.90;;;;;;5086996;28;20495;-61
2021/01/15 07:22:12;;;;;;;19.85;3.80;;;7.40;99.90;;;;;;5085136;28;20111;-61
2021/01/15 07:24:40;;;;;;;13.68;3.65;;;7.20;99.90;;;;;;5088153;28;20032;-61
2021/01/15 07:27:09;;;;;;;21.45;4.00;;;7.30;99.90;;;;;;5082944;28;20012;-61
2021/01/15 07:29:48;;;;;;;12.60;2.80;;;7.40;99.90;;;;;;5080887;28;20037;-61
2021/01/15 07:32:20;;;;;;;16.38;3.40;;;7.20;99.90;;;;;;5081632;28;20016;-61
2021/01/15 07:34:51;;;;;;;17.55;4.10;;;7.30;99.90;;;;;;5069385;28;20020;-61
2021/01/15 07:37:29;;;;;;;23.20;3.17;;;7.40;99.90;;;;;;5080107;28;20020;-61
2021/01/15 07:40:09;;;;;;;16.20;3.13;;;7.30;99.90;;;;;;5087552;28;20608;-61
2021/01/15 07:42:57;;;;;;;16.10;2.95;;;7.30;99.90;;;;;;5084872;28;20017;-61
2021/01/15 07:45:23;;;;;;;12.75;2.95;;;7.30;99.90;;;;;;5084383;28;20016;-61
2021/01/15 07:48:04;;;;;;;20.55;3.00;;;7.30;99.90;;;;;;5078075;28;20460;-61
2021/01/15 07:50:42;;;;;;;19.60;3.47;;;7.40;99.90;;;;;;5070943;28;20035;-61
2021/01/15 07:53:24;;;;;;;14.15;2.80;;;7.40;99.90;;;;;;5073826;28;20030;-62
2021/01/15 07:55:49;;;;;;;14.80;2.33;;;7.20;99.90;;;;;;5082582;28;20040;-61
2021/01/15 07:58:20;;;;;;;22.77;3.33;;;7.20;99.90;;;;;;5084910;28;20024;-61
2021/01/15 08:00:47;;;;;;;23.38;3.50;;;7.30;99.90;;;;;;5073287;28;20104;-61
2021/01/15 08:03:13;;;;;;;15.57;2.80;;;7.40;99.90;;;;;;5082869;28;20024;-60
2021/01/15 08:05:40;;;;;;;15.85;3.35;;;7.10;99.90;;;;;;5084031;28;20093;-61
2021/01/15 08:08:14;;;;;;;12.85;2.72;;;7.20;99.90;;;;;;5079210;28;20044;-61
2021/01/15 08:10:45;;;;;;;16.50;3.15;;;7.40;99.90;;;;;;5086805;28;20040;-61
2021/01/15 08:13:21;;;;;;;18.95;3.58;;;7.40;99.90;;;;;;5071018;28;20040;-61
2021/01/15 08:15:47;;;;;;;20.00;3.17;;;7.30;99.90;;;;;;5085829;28;20012;-63
2021/01/15 08:18:13;;;;;;;21.27;3.30;;;7.40;99.90;;;;;;5059291;28;20124;-64
2021/01/15 08:20:53;;;;;;;13.73;2.72;;;7.30;99.90;;;;;;5085107;28;20021;-64
2021/01/15 08:23:23;;;;;;;21.73;2.78;;;7.40;99.90;;;;;;5072292;28;20023;-66
2021/01/15 08:25:51;;;;;;;21.80;3.53;;;7.20;99.90;;;;;;5085264;28;20162;-66
2021/01/15 08:28:17;;;;;;;19.25;3.60;;;7.10;99.90;;;;;;5081408;28;20066;-65
2021/01/15 08:30:59;;;;;;;15.18;2.47;;;7.20;99.90;;;;;;5084064;28;20060;-63
2021/01/15 08:33:25;;;;;;;18.15;3.00;;;7.20;99.90;;;;;;5080159;28;20027;-65
2021/01/15 08:35:53;;;;;;;15.63;3.33;;;7.20;99.90;;;;;;5071399;28;20020;-63
2021/01/15 08:38:29;;;;;;;15.85;3.00;;;7.20;99.90;;;;;;5078834;28;20024;-63
2021/01/15 08:40:59;;;;;;;13.68;3.92;;;7.40;99.90;;;;;;5081856;28;20032;-61
2021/01/15 08:43:26;;;;;;;14.82;2.42;;;7.40;99.90;;;;;;5078309;28;20106;-61
2021/01/15 08:45:53;;;;;;;14.55;2.75;;;7.40;99.90;;;;;;5084428;28;20043;-61
2021/01/15 08:48:22;;;;;;;23.00;3.55;;;7.50;99.90;;;;;;5086226;28;20498;-60
2021/01/15 08:50:49;;;;;;;12.52;2.72;;;7.70;99.90;;;;;;5089958;28;20239;-64
2021/01/15 08:53:18;;;;;;;16.92;3.00;;;7.60;99.90;;;;;;5083469;28;20046;-63
2021/01/15 08:55:46;;;;;;;13.30;2.95;;;7.60;99.90;;;;;;5073959;28;20020;-64
2021/01/15 08:58:12;;;;;;;20.48;3.70;;;7.60;99.90;;;;;;5081160;28;20112;-64
2021/01/15 09:00:38;;;;;;;12.75;2.90;;;7.60;99.90;;;;;;5086067;28;20048;-64
2021/01/15 09:03:05;;;;;;;15.02;2.78;;;7.60;99.90;;;;;;5081926;28;20128;-63
2021/01/15 09:05:32;;;;;;;21.13;3.85;;;7.50;99.90;;;;;;5085619;28;20020;-64
2021/01/15 09:08:02;;;;;;;17.63;3.20;;;7.50;99.90;;;;;;5076347;28;20117;-64
2021/01/15 09:10:29;;;;;;;21.30;4.28;;;7.50;99.90;;;;;;5070412;28;20115;-64
2021/01/15 09:13:03;;;;;;;17.90;3.40;;;7.40;99.90;;;;;;5078746;28;20428;-64
2021/01/15 09:15:30;;;;;;;13.07;3.42;;;7.40;99.90;;;;;;5085849;28;20447;-63
2021/01/15 09:17:57;;;;;;;14.98;2.53;;;7.60;99.90;;;;;;5074848;28;20393;-64
2021/01/15 09:20:23;;;;;;;15.80;2.50;;;7.50;99.90;;;;;;5091101;28;20020;-63
2021/01/15 09:22:49;;;;;;;16.20;2.85;;;7.60;99.90;;;;;;5078582;28;20024;-63
2021/01/15 09:25:16;;;;;;;16.80;3.20;;;7.60;99.90;;;;;;5079589;28;20024;-63
2021/01/15 09:27:42;;;;;;;12.77;2.72;;;7.60;99.90;;;;;;5069699;28;20021;-62
2021/01/15 09:30:10;;;;;;;13.65;2.95;;;7.70;99.90;;;;;;5071983;28;20162;-62
2021/01/15 09:32:35;;;;;;;18.23;2.70;;;7.80;99.90;;;;;;5074839;28;20681;-62
2021/01/15 09:35:01;;;;;;;9.55;2.70;;;7.90;99.90;;;;;;5066866;28;20179;-63
2021/01/15 09:37:27;;;;;;;8.30;2.42;;;7.90;99.90;;;;;;5073309;28;20028;-63
2021/01/15 09:39:53;;;;;;;13.32;3.08;;;8.10;99.90;;;;;;5087840;28;20028;-62
2021/01/15 09:42:18;;;;;;;10.38;2.20;;;8.00;99.90;;;;;;5076597;28;20032;-62
2021/01/15 09:44:44;;;;;;;7.35;2.33;;;8.00;99.90;;;;;;5086024;28;20024;-63
2021/01/15 09:47:09;;;;;;;9.80;2.58;;;8.10;99.90;;;;;;5077218;28;20104;-63
2021/01/15 09:49:35;;;;;;;11.88;1.90;;;8.30;99.90;;;;;;5066927;28;20598;-62
2021/01/15 09:52:02;;;;;;;11.13;1.85;;;8.50;99.90;;;;;;5068537;28;20115;-62
2021/01/15 09:54:28;;;;;;;17.67;3.38;;;8.60;99.90;;;;;;5082532;28;20023;-63
2021/01/15 09:56:54;;;;;;;14.27;2.60;;;8.70;99.90;;;;;;5073322;28;20489;-63
2021/01/15 09:59:20;;;;;;;6.38;2.08;;;8.70;99.90;;;;;;5068665;28;20021;-63
2021/01/15 10:01:47;;;;;;;10.88;2.25;;;9.00;99.90;;;;;;5072545;28;20023;-61
2021/01/15 10:04:13;;;;;;;8.65;2.10;;;9.00;99.90;;;;;;5077165;28;20500;-63
2021/01/15 10:06:40;;;;;;;12.55;2.28;;;9.00;99.90;;;;;;5076965;28;20025;-62
2021/01/15 10:09:08;;;;;;;8.23;2.40;;;9.20;99.90;;;;;;5074534;28;20052;-63
2021/01/15 10:11:36;;;;;;;16.27;2.65;;;9.10;99.90;;;;;;5079712;28;20082;-63
2021/01/15 10:14:06;;;;;;;9.75;2.33;;;9.20;99.90;;;;;;5086319;28;20050;-63
2021/01/15 10:16:35;;;;;;;17.98;2.72;;;9.50;99.90;;;;;;5077776;28;20075;-63
2021/01/15 10:19:01;;;;;;;13.82;2.67;;;9.50;99.90;;;;;;5073226;28;20146;-63
2021/01/15 10:21:28;;;;;;;12.88;2.42;;;9.50;99.90;;;;;;5078723;28;20173;-63
2021/01/15 10:23:56;;;;;;;13.82;2.35;;;9.60;99.90;;;;;;5078677;28;20067;-63
2021/01/15 10:26:30;;;;;;;11.00;2.60;;;9.80;99.90;;;;;;5074244;28;20062;-63
2021/01/15 10:28:58;;;;;;;8.48;2.30;;;10.00;99.90;;;;;;5085204;28;20028;-63
2021/01/15 10:31:41;;;;;;;7.95;2.60;;;9.60;99.90;;;;;;5082119;28;20020;-63
2021/01/15 10:34:06;;;;;;;15.27;2.60;;;9.30;99.90;;;;;;5083122;28;20024;-63
2021/01/15 10:36:32;;;;;;;13.05;2.25;;;9.50;99.90;;;;;;5080512;28;20081;-63
2021/01/15 10:38:58;;;;;;;17.17;2.58;;;9.20;99.90;;;;;;5090312;28;20069;-63
2021/01/15 10:41:35;;;;;;;13.45;2.83;;;9.00;99.90;;;;;;5082424;28;20462;-63
2021/01/15 10:44:03;;;;;;;13.43;3.03;;;8.90;99.90;;;;;;5080524;28;20036;-63
2021/01/15 10:46:37;;;;;;;11.65;2.50;;;9.10;99.90;;;;;;5080007;28;20028;-63
2021/01/15 10:49:17;;;;;;;8.32;2.50;;;8.90;99.90;;;;;;5086646;28;20031;-63
2021/01/15 10:51:44;;;;;;;15.35;3.33;;;9.10;99.90;;;;;;5081165;28;20093;-63
2021/01/15 10:54:10;;;;;;;13.55;2.38;;;9.00;99.90;;;;;;5080229;28;20023;-63
2021/01/15 10:56:37;;;;;;;12.88;3.25;;;9.00;99.90;;;;;;5072123;28;20445;-63
2021/01/15 10:59:04;;;;;;;10.20;2.47;;;9.30;99.90;;;;;;5073823;28;20061;-63
2021/01/15 11:01:40;;;;;;;10.40;2.67;;;9.00;99.90;;;;;;5080149;28;20016;-63
2021/01/15 11:04:07;;;;;;;6.72;1.98;;;9.30;99.90;;;;;;5086171;28;20065;-63
2021/01/15 11:06:41;;;;;;;13.50;2.50;;;9.40;99.90;;;;;;5066166;28;20431;-63
2021/01/15 11:09:08;;;;;;;16.75;3.30;;;9.60;99.90;;;;;;5069996;28;20094;-63
2021/01/15 11:11:35;;;;;;;10.73;2.42;;;9.90;99.90;;;;;;5077287;28;20036;-63
2021/01/15 11:14:00;;;;;;;8.82;2.35;;;10.00;99.90;;;;;;5074838;28;20130;-62
2021/01/15 11:19:01;;;;;;;10.13;2.40;;;10.50;99.90;;;;;;5787078;22;20060;-63
2021/01/15 11:21:27;;;;;;;5.53;1.77;;;10.50;99.90;;;;;;5069640;28;20028;-62
2021/01/15 11:23:54;;;;;;;8.82;1.40;;;10.20;99.90;;;;;;5069169;28;20024;-65
2021/01/15 11:26:26;;;;;;;6.70;2.25;;;10.30;99.90;;;;;;5080145;28;20029;-61
2021/01/15 11:28:57;;;;;;;9.52;2.40;;;10.30;99.90;;;;;;5070261;28;20048;-62
2021/01/15 11:31:23;;;;;;;11.98;1.73;;;10.60;99.90;;;;;;5066477;28;20341;-61
2021/01/15 11:33:50;;;;;;;10.00;2.08;;;10.30;99.90;;;;;;5075103;28;20020;-60
2021/01/15 11:36:16;;;;;;;11.43;2.58;;;10.30;99.90;;;;;;5075493;28;20036;-61
2021/01/15 11:38:42;;;;;;;13.27;1.88;;;10.10;99.90;;;;;;5072348;28;20021;-62
2021/01/15 11:41:12;;;;;;;10.18;2.08;;;9.90;99.90;;;;;;5075494;28;20340;-62
2021/01/15 11:43:39;;;;;;;7.28;2.10;;;9.40;99.90;;;;;;5070908;28;20207;-62
2021/01/15 11:46:05;;;;;;;4.95;1.60;;;10.00;99.90;;;;;;5068658;28;20024;-62
2021/01/15 11:48:32;;;;;;;12.73;4.85;;;10.30;99.90;;;;;;5072286;28;20047;-60
2021/01/15 11:50:58;;;;;;;13.07;6.00;;;10.70;99.90;;;;;;5071473;28;20084;-60
2021/01/15 11:53:24;;;;;;;11.23;3.95;;;11.20;99.90;;;;;;5071685;28;20031;-65
2021/01/15 11:55:52;;;;;;;12.02;4.80;;;11.10;99.90;;;;;;5081446;28;20036;-63
2021/01/15 11:58:18;;;;;;;11.98;4.97;;;11.00;99.90;;;;;;5065164;28;20051;-61
2021/01/15 12:00:44;;;;;;;10.23;2.03;;;10.60;99.90;;;;;;5072475;28;20238;-61
2021/01/15 12:03:10;;;;;;;17.05;5.90;;;10.30;99.90;;;;;;5069182;28;20048;-65
2021/01/15 12:05:49;;;;;;;15.88;6.80;;;10.50;99.90;;;;;;5065379;28;20012;-64
2021/01/15 12:08:19;;;;;;;5.78;1.83;;;11.10;99.90;;;;;;5067596;28;20025;-64
2021/01/15 12:10:49;;;;;;;9.98;1.92;;;11.10;99.90;;;;;;5067591;28;20097;-64
2021/01/15 12:13:15;;;;;;;2.90;1.23;;;11.00;99.90;;;;;;5069730;28;20025;-66
2021/01/15 12:15:41;;;;;;;4.10;0.85;;;11.20;99.90;;;;;;5063791;28;20029;-65
2021/01/15 12:18:07;;;;;;;7.32;1.67;;;11.50;99.90;;;;;;5065116;28;20035;-63
2021/01/15 12:20:39;;;;;;;3.42;1.50;;;11.40;99.90;;;;;;5076291;28;20104;-66
2021/01/15 12:23:04;;;;;;;5.70;0.95;;;11.00;99.90;;;;;;5065608;28;20037;-65
2021/01/15 12:25:31;;;;;;;5.05;1.23;;;11.30;99.90;;;;;;5062404;28;20044;-66
2021/01/15 12:27:57;;;;;;;3.50;1.10;;;11.80;99.90;;;;;;5066329;28;20044;-65
2021/01/15 12:30:23;;;;;;;5.55;1.10;;;11.90;99.90;;;;;;5075585;28;20083;-66
2021/01/15 12:32:50;;;;;;;6.65;1.33;;;11.40;99.90;;;;;;5075872;28;20009;-64
2021/01/15 12:35:17;;;;;;;11.68;1.30;;;11.20;99.90;;;;;;5066726;28;20096;-66
2021/01/15 12:37:43;;;;;;;4.63;1.45;;;11.60;99.90;;;;;;5071112;28;20051;-65
2021/01/15 12:40:09;;;;;;;4.32;1.30;;;10.80;99.90;;;;;;5073074;28;20025;-65
2021/01/15 12:42:35;;;;;;;6.60;1.42;;;10.50;99.90;;;;;;5070171;28;20320;-62
2021/01/15 12:45:00;;;;;;;5.00;1.33;;;10.60;99.90;;;;;;5074211;28;20051;-63
2021/01/15 12:47:26;;;;;;;5.15;1.33;;;10.30;99.90;;;;;;5066749;28;20017;-66
2021/01/15 12:49:51;;;;;;;5.68;1.95;;;9.90;99.90;;;;;;5061195;28;20071;-68
2021/01/15 12:52:20;;;;;;;13.00;1.80;;;9.50;99.90;;;;;;5063969;28;20207;-66
2021/01/15 12:54:46;;;;;;;8.48;2.05;;;9.40;99.90;;;;;;5061589;28;20036;-67
2021/01/15 12:57:11;;;;;;;9.85;1.70;;;9.20;99.90;;;;;;5071984;28;20017;-67
2021/01/15 12:59:37;;;;;;;7.63;1.75;;;8.60;99.90;;;;;;5075408;28;20131;-66
2021/01/15 13:02:03;;;;;;;4.70;1.60;;;8.30;99.90;;;;;;5077825;28;20391;-67
2021/01/15 13:04:30;;;;;;;4.07;1.55;;;8.20;99.90;;;;;;5072337;28;20042;-67
2021/01/15 13:06:56;;;;;;;4.82;1.20;;;8.30;99.90;;;;;;5078109;28;20016;-67
2021/01/15 13:09:21;;;;;;;5.28;1.38;;;8.20;99.90;;;;;;5071564;28;20071;-67
2021/01/15 13:11:47;;;;;;;2.60;1.10;;;8.30;99.90;;;;;;5076097;28;20075;-67
2021/01/15 13:14:13;;;;;;;4.93;1.42;;;8.40;99.90;;;;;;5068908;28;20088;-67
2021/01/15 13:16:38;;;;;;;6.28;1.75;;;8.50;99.90;;;;;;5077102;28;20307;-67
2021/01/15 13:19:04;;;;;;;6.22;1.13;;;8.40;99.90;;;;;;5066509;28;20220;-67
2021/01/15 13:21:30;;;;;;;4.25;1.60;;;8.60;99.90;;;;;;5068979;28;20020;-66
2021/01/15 13:23:55;;;;;;;7.60;1.30;;;8.90;99.90;;;;;;5064641;28;20079;-67
2021/01/15 13:26:21;;;;;;;4.18;1.05;;;9.30;99.90;;;;;;5077866;28;20024;-65
2021/01/15 13:28:47;;;;;;;6.10;1.80;;;9.90;99.90;;;;;;5074881;28;20189;-66